Sipes Mill, Pennsylvania
Current Conditions -  °F | °C
As of 1:53 AM on Tuesday 21 Oct 2014 (Local Time) from KHGR Reporting Station
Overcast Overcast  
Wind Chill: 52°   Ceiling: 6500
Heat Index: 52°   Visibility: 9mi
Dew Point: 49°   Wind: 0mph
Humidity: 89%   Direction: NA
Pressure: 29.88"   Gusts: NA
Location:  39.8811°N, 78.1402°W
Report Text: KHGR 210553Z AUTO 00000KT 9SM OVC065 11/09 A2988 RMK AO2 RAB14E27 SLP128 P0000 60000 T01110094 10139 20111 56016
Loading
Personal Weather Stations






























Interactive Weather Map
Tropical Storm Tracking
New forecast layout! Learn more

10-Day Weather Forecast

Advertisements
Track Severe Weather on mobile